Roberts, Illinois
Current Conditions -  °F | °C
As of 6:10 PM on Thursday 27 Nov 2014 (Local Time) from KTIP Reporting Station
Overcast Overcast  
Wind Chill: 16°   Ceiling: 2800
Heat Index: 26°   Visibility: 10mi
Dew Point: 16°   Wind: 9mph
Humidity: 68%   Direction: 310°NW
Pressure: 30.42"   Gusts: NA
Location:  40.61°N, 88.18°W
Report Text: KTIP 280010Z AUTO 31008KT 10SM OVC028 M03/M09 A3042 RMK AO2 T10351087
Loading
Personal Weather Stations






























Interactive Weather Map New forecast layout! Learn more

10-Day Weather Forecast

Advertisements
Track Severe Weather on mobile